sensor_id;sensor_type;location;lat;lon;timestamp;P1;durP1;ratioP1;P2;durP2;ratioP2
80637;SDS011;69991;51.760;19.528;2023-06-04T00:00:55;4.70;;;1.50;;
80637;SDS011;69991;51.760;19.528;2023-06-04T00:03:56;4.60;;;1.60;;
80637;SDS011;69991;51.760;19.528;2023-06-04T00:06:26;3.20;;;1.20;;
80637;SDS011;69991;51.760;19.528;2023-06-04T00:08:55;5.70;;;1.60;;
80637;SDS011;69991;51.760;19.528;2023-06-04T00:11:24;4.50;;;1.60;;
80637;SDS011;69991;51.760;19.528;2023-06-04T00:13:55;3.70;;;1.70;;
80637;SDS011;69991;51.760;19.528;2023-06-04T00:16:24;3.90;;;1.70;;
80637;SDS011;69991;51.760;19.528;2023-06-04T00:18:53;4.80;;;1.50;;
80637;SDS011;69991;51.760;19.528;2023-06-04T00:21:22;3.50;;;1.30;;
80637;SDS011;69991;51.760;19.528;2023-06-04T00:23:51;3.20;;;1.40;;
80637;SDS011;69991;51.760;19.528;2023-06-04T00:26:21;3.90;;;1.70;;
80637;SDS011;69991;51.760;19.528;2023-06-04T00:28:50;3.70;;;1.30;;
80637;SDS011;69991;51.760;19.528;2023-06-04T00:31:19;5.10;;;1.70;;
80637;SDS011;69991;51.760;19.528;2023-06-04T00:33:48;4.20;;;1.40;;
80637;SDS011;69991;51.760;19.528;2023-06-04T00:36:17;4.20;;;1.50;;
80637;SDS011;69991;51.760;19.528;2023-06-04T00:38:46;4.10;;;1.50;;
80637;SDS011;69991;51.760;19.528;2023-06-04T00:41:15;4.00;;;1.60;;
80637;SDS011;69991;51.760;19.528;2023-06-04T00:43:45;3.20;;;1.30;;
80637;SDS011;69991;51.760;19.528;2023-06-04T00:46:14;2.60;;;1.20;;
80637;SDS011;69991;51.760;19.528;2023-06-04T00:48:47;3.40;;;1.40;;
80637;SDS011;69991;51.760;19.528;2023-06-04T00:51:16;3.30;;;1.40;;
80637;SDS011;69991;51.760;19.528;2023-06-04T00:53:45;4.40;;;1.30;;
80637;SDS011;69991;51.760;19.528;2023-06-04T00:56:15;4.10;;;1.50;;
80637;SDS011;69991;51.760;19.528;2023-06-04T00:58:44;5.20;;;1.70;;
80637;SDS011;69991;51.760;19.528;2023-06-04T01:01:18;4.60;;;1.50;;
80637;SDS011;69991;51.760;19.528;2023-06-04T01:04:00;3.80;;;1.50;;
80637;SDS011;69991;51.760;19.528;2023-06-04T01:06:44;3.50;;;1.40;;
80637;SDS011;69991;51.760;19.528;2023-06-04T01:09:14;5.00;;;1.60;;
80637;SDS011;69991;51.760;19.528;2023-06-04T01:11:44;3.80;;;1.50;;
80637;SDS011;69991;51.760;19.528;2023-06-04T01:14:13;3.70;;;1.60;;
80637;SDS011;69991;51.760;19.528;2023-06-04T01:22:39;3.20;;;1.40;;
80637;SDS011;69991;51.760;19.528;2023-06-04T01:25:39;3.30;;;1.20;;
80637;SDS011;69991;51.760;19.528;2023-06-04T01:28:10;5.30;;;1.50;;
80637;SDS011;69991;51.760;19.528;2023-06-04T01:30:42;7.10;;;2.00;;
80637;SDS011;69991;51.760;19.528;2023-06-04T01:33:15;4.80;;;1.60;;
80637;SDS011;69991;51.760;19.528;2023-06-04T01:35:45;5.60;;;1.80;;
80637;SDS011;69991;51.760;19.528;2023-06-04T01:38:15;4.00;;;1.60;;
80637;SDS011;69991;51.760;19.528;2023-06-04T01:40:44;3.30;;;1.40;;
80637;SDS011;69991;51.760;19.528;2023-06-04T01:43:14;3.40;;;1.40;;
80637;SDS011;69991;51.760;19.528;2023-06-04T01:45:43;4.00;;;1.70;;
80637;SDS011;69991;51.760;19.528;2023-06-04T01:48:13;3.70;;;1.50;;
80637;SDS011;69991;51.760;19.528;2023-06-04T01:50:42;7.40;;;1.40;;
80637;SDS011;69991;51.760;19.528;2023-06-04T01:53:11;5.50;;;1.60;;
80637;SDS011;69991;51.760;19.528;2023-06-04T01:55:40;4.00;;;1.50;;
80637;SDS011;69991;51.760;19.528;2023-06-04T01:58:09;4.90;;;1.30;;
80637;SDS011;69991;51.760;19.528;2023-06-04T02:00:38;3.60;;;1.20;;
80637;SDS011;69991;51.760;19.528;2023-06-04T02:03:07;4.20;;;1.30;;
80637;SDS011;69991;51.760;19.528;2023-06-04T02:05:37;3.30;;;1.60;;
80637;SDS011;69991;51.760;19.528;2023-06-04T02:08:06;3.40;;;1.50;;
80637;SDS011;69991;51.760;19.528;2023-06-04T02:10:37;3.60;;;1.60;;
80637;SDS011;69991;51.760;19.528;2023-06-04T02:13:06;4.30;;;1.50;;
80637;SDS011;69991;51.760;19.528;2023-06-04T02:15:35;5.30;;;1.80;;
80637;SDS011;69991;51.760;19.528;2023-06-04T02:18:12;4.70;;;1.70;;
80637;SDS011;69991;51.760;19.528;2023-06-04T02:20:47;3.70;;;1.50;;
80637;SDS011;69991;51.760;19.528;2023-06-04T02:23:17;4.60;;;1.60;;
80637;SDS011;69991;51.760;19.528;2023-06-04T02:25:48;4.50;;;1.60;;
80637;SDS011;69991;51.760;19.528;2023-06-04T02:28:18;4.10;;;1.70;;
80637;SDS011;69991;51.760;19.528;2023-06-04T02:30:49;3.80;;;1.30;;
80637;SDS011;69991;51.760;19.528;2023-06-04T02:33:18;3.60;;;1.40;;
80637;SDS011;69991;51.760;19.528;2023-06-04T02:35:47;4.40;;;1.70;;
80637;SDS011;69991;51.760;19.528;2023-06-04T02:38:16;4.30;;;1.50;;
80637;SDS011;69991;51.760;19.528;2023-06-04T02:40:45;3.50;;;1.60;;
80637;SDS011;69991;51.760;19.528;2023-06-04T02:43:14;4.70;;;1.80;;
80637;SDS011;69991;51.760;19.528;2023-06-04T02:45:44;5.10;;;1.70;;
80637;SDS011;69991;51.760;19.528;2023-06-04T02:48:13;4.90;;;1.80;;
80637;SDS011;69991;51.760;19.528;2023-06-04T02:50:42;3.70;;;1.40;;
80637;SDS011;69991;51.760;19.528;2023-06-04T02:53:11;3.90;;;1.60;;
80637;SDS011;69991;51.760;19.528;2023-06-04T02:55:40;3.20;;;1.50;;
80637;SDS011;69991;51.760;19.528;2023-06-04T02:58:10;4.70;;;1.70;;
80637;SDS011;69991;51.760;19.528;2023-06-04T03:00:39;4.20;;;1.70;;
80637;SDS011;69991;51.760;19.528;2023-06-04T03:03:09;5.40;;;1.80;;
80637;SDS011;69991;51.760;19.528;2023-06-04T03:05:38;3.70;;;1.40;;
80637;SDS011;69991;51.760;19.528;2023-06-04T03:08:08;3.70;;;1.60;;
80637;SDS011;69991;51.760;19.528;2023-06-04T03:10:37;4.40;;;1.60;;
80637;SDS011;69991;51.760;19.528;2023-06-04T03:13:06;5.00;;;1.90;;
80637;SDS011;69991;51.760;19.528;2023-06-04T03:15:35;4.00;;;1.70;;
80637;SDS011;69991;51.760;19.528;2023-06-04T03:18:08;5.30;;;1.70;;
80637;SDS011;69991;51.760;19.528;2023-06-04T03:20:37;3.80;;;1.50;;
80637;SDS011;69991;51.760;19.528;2023-06-04T03:23:07;5.30;;;1.80;;
80637;SDS011;69991;51.760;19.528;2023-06-04T03:25:36;5.40;;;1.90;;
80637;SDS011;69991;51.760;19.528;2023-06-04T03:28:05;4.40;;;1.90;;
80637;SDS011;69991;51.760;19.528;2023-06-04T03:30:34;5.10;;;2.10;;
80637;SDS011;69991;51.760;19.528;2023-06-04T03:33:03;4.60;;;2.30;;
80637;SDS011;69991;51.760;19.528;2023-06-04T03:35:33;4.10;;;2.00;;
80637;SDS011;69991;51.760;19.528;2023-06-04T03:38:02;4.70;;;1.80;;
80637;SDS011;69991;51.760;19.528;2023-06-04T03:40:31;4.50;;;1.60;;
80637;SDS011;69991;51.760;19.528;2023-06-04T03:43:00;3.90;;;1.80;;
80637;SDS011;69991;51.760;19.528;2023-06-04T03:45:29;5.20;;;1.90;;
80637;SDS011;69991;51.760;19.528;2023-06-04T03:47:58;4.80;;;1.90;;
80637;SDS011;69991;51.760;19.528;2023-06-04T03:50:27;4.60;;;1.60;;
80637;SDS011;69991;51.760;19.528;2023-06-04T03:52:57;4.20;;;1.80;;
80637;SDS011;69991;51.760;19.528;2023-06-04T03:55:26;4.30;;;1.70;;
80637;SDS011;69991;51.760;19.528;2023-06-04T03:57:55;4.70;;;1.60;;
80637;SDS011;69991;51.760;19.528;2023-06-04T04:00:24;4.40;;;1.80;;
80637;SDS011;69991;51.760;19.528;2023-06-04T04:02:53;4.70;;;1.50;;
80637;SDS011;69991;51.760;19.528;2023-06-04T04:05:22;4.90;;;1.80;;
80637;SDS011;69991;51.760;19.528;2023-06-04T04:07:51;4.70;;;1.90;;
80637;SDS011;69991;51.760;19.528;2023-06-04T04:10:20;4.40;;;1.70;;
80637;SDS011;69991;51.760;19.528;2023-06-04T04:12:50;4.70;;;1.90;;
80637;SDS011;69991;51.760;19.528;2023-06-04T04:15:20;4.20;;;1.90;;
80637;SDS011;69991;51.760;19.528;2023-06-04T04:17:49;4.90;;;1.80;;
80637;SDS011;69991;51.760;19.528;2023-06-04T04:20:18;4.10;;;1.50;;
80637;SDS011;69991;51.760;19.528;2023-06-04T04:22:47;4.30;;;1.90;;
80637;SDS011;69991;51.760;19.528;2023-06-04T04:25:19;4.90;;;1.80;;
80637;SDS011;69991;51.760;19.528;2023-06-04T04:27:48;3.20;;;1.50;;
80637;SDS011;69991;51.760;19.528;2023-06-04T04:30:17;4.10;;;1.70;;
80637;SDS011;69991;51.760;19.528;2023-06-04T04:32:47;4.60;;;1.40;;
80637;SDS011;69991;51.760;19.528;2023-06-04T04:35:19;4.50;;;1.50;;
80637;SDS011;69991;51.760;19.528;2023-06-04T04:37:48;5.80;;;1.80;;
80637;SDS011;69991;51.760;19.528;2023-06-04T04:40:18;4.10;;;1.80;;
80637;SDS011;69991;51.760;19.528;2023-06-04T04:42:47;3.90;;;1.50;;
80637;SDS011;69991;51.760;19.528;2023-06-04T04:45:16;5.50;;;1.70;;
80637;SDS011;69991;51.760;19.528;2023-06-04T04:47:46;4.80;;;1.60;;
80637;SDS011;69991;51.760;19.528;2023-06-04T04:50:15;3.90;;;1.50;;
80637;SDS011;69991;51.760;19.528;2023-06-04T04:52:45;3.40;;;1.20;;
80637;SDS011;69991;51.760;19.528;2023-06-04T04:55:14;4.90;;;1.50;;
80637;SDS011;69991;51.760;19.528;2023-06-04T04:57:43;7.10;;;2.20;;
80637;SDS011;69991;51.760;19.528;2023-06-04T05:00:12;4.00;;;1.60;;
80637;SDS011;69991;51.760;19.528;2023-06-04T05:02:42;4.80;;;1.80;;
80637;SDS011;69991;51.760;19.528;2023-06-04T05:05:12;3.60;;;1.40;;
80637;SDS011;69991;51.760;19.528;2023-06-04T05:07:41;3.40;;;1.50;;
80637;SDS011;69991;51.760;19.528;2023-06-04T05:10:10;3.90;;;1.40;;
80637;SDS011;69991;51.760;19.528;2023-06-04T05:12:39;3.90;;;1.50;;
80637;SDS011;69991;51.760;19.528;2023-06-04T05:15:20;4.60;;;1.40;;
80637;SDS011;69991;51.760;19.528;2023-06-04T05:17:49;5.10;;;1.30;;
80637;SDS011;69991;51.760;19.528;2023-06-04T05:20:21;3.30;;;1.20;;
80637;SDS011;69991;51.760;19.528;2023-06-04T05:22:51;3.10;;;1.10;;
80637;SDS011;69991;51.760;19.528;2023-06-04T05:25:20;3.80;;;1.20;;
80637;SDS011;69991;51.760;19.528;2023-06-04T05:27:50;2.60;;;1.00;;
80637;SDS011;69991;51.760;19.528;2023-06-04T05:30:19;3.20;;;1.30;;
80637;SDS011;69991;51.760;19.528;2023-06-04T05:32:49;4.50;;;1.40;;
80637;SDS011;69991;51.760;19.528;2023-06-04T05:35:19;4.00;;;1.10;;
80637;SDS011;69991;51.760;19.528;2023-06-04T05:37:49;3.20;;;1.20;;
80637;SDS011;69991;51.760;19.528;2023-06-04T05:40:23;4.30;;;1.30;;
80637;SDS011;69991;51.760;19.528;2023-06-04T05:42:52;2.70;;;1.10;;
80637;SDS011;69991;51.760;19.528;2023-06-04T05:45:21;2.60;;;0.90;;
80637;SDS011;69991;51.760;19.528;2023-06-04T05:47:50;3.60;;;1.00;;
80637;SDS011;69991;51.760;19.528;2023-06-04T05:50:22;3.80;;;1.20;;
80637;SDS011;69991;51.760;19.528;2023-06-04T05:52:51;3.20;;;1.30;;
80637;SDS011;69991;51.760;19.528;2023-06-04T05:55:20;3.10;;;1.00;;
80637;SDS011;69991;51.760;19.528;2023-06-04T05:57:50;3.50;;;1.20;;
80637;SDS011;69991;51.760;19.528;2023-06-04T06:02:51;2.20;;;0.80;;
80637;SDS011;69991;51.760;19.528;2023-06-04T06:05:24;3.50;;;1.00;;
80637;SDS011;69991;51.760;19.528;2023-06-04T06:07:53;3.20;;;1.00;;
80637;SDS011;69991;51.760;19.528;2023-06-04T06:10:22;3.30;;;0.90;;
80637;SDS011;69991;51.760;19.528;2023-06-04T06:12:52;4.00;;;1.20;;
80637;SDS011;69991;51.760;19.528;2023-06-04T06:15:21;4.40;;;1.20;;
80637;SDS011;69991;51.760;19.528;2023-06-04T06:17:51;3.30;;;1.00;;
80637;SDS011;69991;51.760;19.528;2023-06-04T06:20:20;5.20;;;2.20;;
80637;SDS011;69991;51.760;19.528;2023-06-04T06:22:50;3.20;;;1.30;;
80637;SDS011;69991;51.760;19.528;2023-06-04T06:25:19;3.20;;;0.90;;
80637;SDS011;69991;51.760;19.528;2023-06-04T06:27:49;3.60;;;0.90;;
80637;SDS011;69991;51.760;19.528;2023-06-04T06:30:18;4.00;;;1.30;;
80637;SDS011;69991;51.760;19.528;2023-06-04T06:32:47;2.70;;;0.90;;
80637;SDS011;69991;51.760;19.528;2023-06-04T06:35:17;3.00;;;0.90;;
80637;SDS011;69991;51.760;19.528;2023-06-04T06:37:46;3.50;;;0.90;;
80637;SDS011;69991;51.760;19.528;2023-06-04T06:40:15;2.50;;;0.90;;
80637;SDS011;69991;51.760;19.528;2023-06-04T06:42:51;3.20;;;0.80;;
80637;SDS011;69991;51.760;19.528;2023-06-04T06:45:20;2.90;;;0.90;;
80637;SDS011;69991;51.760;19.528;2023-06-04T06:47:49;2.90;;;1.00;;
80637;SDS011;69991;51.760;19.528;2023-06-04T06:50:18;3.70;;;1.30;;
80637;SDS011;69991;51.760;19.528;2023-06-04T06:52:47;2.40;;;0.80;;
80637;SDS011;69991;51.760;19.528;2023-06-04T06:55:16;3.90;;;1.00;;
80637;SDS011;69991;51.760;19.528;2023-06-04T06:57:45;2.70;;;1.00;;
80637;SDS011;69991;51.760;19.528;2023-06-04T07:00:15;3.60;;;0.90;;
80637;SDS011;69991;51.760;19.528;2023-06-04T07:02:45;3.10;;;1.00;;
80637;SDS011;69991;51.760;19.528;2023-06-04T07:05:14;2.80;;;0.80;;
80637;SDS011;69991;51.760;19.528;2023-06-04T07:07:45;4.70;;;2.50;;
80637;SDS011;69991;51.760;19.528;2023-06-04T07:10:15;3.40;;;1.40;;
80637;SDS011;69991;51.760;19.528;2023-06-04T07:12:44;2.50;;;0.80;;
80637;SDS011;69991;51.760;19.528;2023-06-04T07:15:13;2.50;;;0.70;;
80637;SDS011;69991;51.760;19.528;2023-06-04T07:17:42;3.60;;;0.90;;
80637;SDS011;69991;51.760;19.528;2023-06-04T07:20:11;2.60;;;1.00;;
80637;SDS011;69991;51.760;19.528;2023-06-04T07:22:41;2.40;;;0.80;;
80637;SDS011;69991;51.760;19.528;2023-06-04T07:25:10;3.20;;;1.00;;
80637;SDS011;69991;51.760;19.528;2023-06-04T07:27:39;2.80;;;0.80;;
80637;SDS011;69991;51.760;19.528;2023-06-04T07:30:09;2.70;;;0.80;;
80637;SDS011;69991;51.760;19.528;2023-06-04T07:32:38;2.80;;;0.90;;
80637;SDS011;69991;51.760;19.528;2023-06-04T07:35:07;4.80;;;0.90;;
80637;SDS011;69991;51.760;19.528;2023-06-04T07:37:37;5.60;;;1.00;;
80637;SDS011;69991;51.760;19.528;2023-06-04T07:40:06;4.20;;;0.90;;
80637;SDS011;69991;51.760;19.528;2023-06-04T07:42:35;2.30;;;0.70;;
80637;SDS011;69991;51.760;19.528;2023-06-04T07:45:05;2.40;;;0.80;;
80637;SDS011;69991;51.760;19.528;2023-06-04T07:47:37;3.40;;;1.00;;
80637;SDS011;69991;51.760;19.528;2023-06-04T07:50:06;3.50;;;0.90;;
80637;SDS011;69991;51.760;19.528;2023-06-04T07:52:36;2.80;;;1.20;;
80637;SDS011;69991;51.760;19.528;2023-06-04T07:55:05;2.40;;;0.90;;
80637;SDS011;69991;51.760;19.528;2023-06-04T07:57:35;4.00;;;0.90;;
80637;SDS011;69991;51.760;19.528;2023-06-04T08:00:05;2.60;;;1.00;;
80637;SDS011;69991;51.760;19.528;2023-06-04T08:02:36;5.00;;;1.10;;
80637;SDS011;69991;51.760;19.528;2023-06-04T08:05:06;3.60;;;0.90;;
80637;SDS011;69991;51.760;19.528;2023-06-04T08:07:35;2.60;;;0.90;;
80637;SDS011;69991;51.760;19.528;2023-06-04T08:10:04;4.80;;;0.90;;
80637;SDS011;69991;51.760;19.528;2023-06-04T08:12:35;2.60;;;0.80;;
80637;SDS011;69991;51.760;19.528;2023-06-04T08:15:04;3.40;;;0.80;;
80637;SDS011;69991;51.760;19.528;2023-06-04T08:17:34;2.80;;;0.80;;
80637;SDS011;69991;51.760;19.528;2023-06-04T08:20:03;3.00;;;0.90;;
80637;SDS011;69991;51.760;19.528;2023-06-04T08:22:35;3.10;;;0.90;;
80637;SDS011;69991;51.760;19.528;2023-06-04T08:25:04;2.20;;;0.80;;
80637;SDS011;69991;51.760;19.528;2023-06-04T08:27:34;2.30;;;0.80;;
80637;SDS011;69991;51.760;19.528;2023-06-04T08:30:04;7.00;;;1.10;;
80637;SDS011;69991;51.760;19.528;2023-06-04T08:32:34;2.30;;;0.80;;
80637;SDS011;69991;51.760;19.528;2023-06-04T08:35:04;2.50;;;0.90;;
80637;SDS011;69991;51.760;19.528;2023-06-04T08:37:34;4.50;;;0.90;;
80637;SDS011;69991;51.760;19.528;2023-06-04T08:40:03;2.60;;;0.70;;
80637;SDS011;69991;51.760;19.528;2023-06-04T08:42:40;3.70;;;1.10;;
80637;SDS011;69991;51.760;19.528;2023-06-04T08:45:11;3.90;;;1.10;;
80637;SDS011;69991;51.760;19.528;2023-06-04T08:47:48;3.40;;;0.90;;
80637;SDS011;69991;51.760;19.528;2023-06-04T08:50:20;2.80;;;0.80;;
80637;SDS011;69991;51.760;19.528;2023-06-04T08:52:54;3.30;;;0.90;;
80637;SDS011;69991;51.760;19.528;2023-06-04T08:55:24;2.50;;;0.80;;
80637;SDS011;69991;51.760;19.528;2023-06-04T08:57:54;2.90;;;0.90;;
80637;SDS011;69991;51.760;19.528;2023-06-04T09:00:23;2.90;;;1.10;;
80637;SDS011;69991;51.760;19.528;2023-06-04T09:02:52;4.40;;;1.60;;
80637;SDS011;69991;51.760;19.528;2023-06-04T09:05:22;2.50;;;1.00;;
80637;SDS011;69991;51.760;19.528;2023-06-04T09:07:54;3.20;;;1.10;;
80637;SDS011;69991;51.760;19.528;2023-06-04T09:10:24;2.50;;;0.80;;
80637;SDS011;69991;51.760;19.528;2023-06-04T09:12:56;2.20;;;0.80;;
80637;SDS011;69991;51.760;19.528;2023-06-04T09:15:27;2.70;;;1.00;;
80637;SDS011;69991;51.760;19.528;2023-06-04T09:17:56;3.10;;;0.90;;
80637;SDS011;69991;51.760;19.528;2023-06-04T09:20:26;3.70;;;1.00;;
80637;SDS011;69991;51.760;19.528;2023-06-04T09:22:57;2.70;;;0.90;;
80637;SDS011;69991;51.760;19.528;2023-06-04T09:25:27;2.40;;;1.00;;
80637;SDS011;69991;51.760;19.528;2023-06-04T09:27:57;3.10;;;0.80;;
80637;SDS011;69991;51.760;19.528;2023-06-04T09:30:34;3.70;;;1.30;;
80637;SDS011;69991;51.760;19.528;2023-06-04T09:33:10;3.50;;;1.00;;
80637;SDS011;69991;51.760;19.528;2023-06-04T09:35:41;3.60;;;0.90;;
80637;SDS011;69991;51.760;19.528;2023-06-04T09:38:10;3.10;;;1.00;;
80637;SDS011;69991;51.760;19.528;2023-06-04T09:40:39;2.20;;;0.70;;
80637;SDS011;69991;51.760;19.528;2023-06-04T09:43:08;3.60;;;1.10;;
80637;SDS011;69991;51.760;19.528;2023-06-04T09:45:39;2.20;;;0.80;;
80637;SDS011;69991;51.760;19.528;2023-06-04T09:48:09;3.80;;;0.90;;
80637;SDS011;69991;51.760;19.528;2023-06-04T09:50:48;3.00;;;0.80;;
80637;SDS011;69991;51.760;19.528;2023-06-04T09:53:18;2.80;;;1.00;;
80637;SDS011;69991;51.760;19.528;2023-06-04T09:55:58;3.00;;;1.10;;
80637;SDS011;69991;51.760;19.528;2023-06-04T09:58:28;3.60;;;0.90;;
80637;SDS011;69991;51.760;19.528;2023-06-04T10:00:59;2.20;;;0.80;;
80637;SDS011;69991;51.760;19.528;2023-06-04T10:03:30;2.70;;;0.80;;
80637;SDS011;69991;51.760;19.528;2023-06-04T10:06:04;3.90;;;1.20;;
80637;SDS011;69991;51.760;19.528;2023-06-04T10:08:34;3.40;;;0.90;;
80637;SDS011;69991;51.760;19.528;2023-06-04T10:11:04;4.30;;;1.20;;
80637;SDS011;69991;51.760;19.528;2023-06-04T10:13:37;2.40;;;0.90;;
80637;SDS011;69991;51.760;19.528;2023-06-04T10:16:14;3.50;;;0.80;;
80637;SDS011;69991;51.760;19.528;2023-06-04T10:19:00;2.60;;;0.70;;
80637;SDS011;69991;51.760;19.528;2023-06-04T10:21:30;2.60;;;0.90;;
80637;SDS011;69991;51.760;19.528;2023-06-04T10:24:03;2.00;;;0.80;;
80637;SDS011;69991;51.760;19.528;2023-06-04T10:26:33;2.80;;;0.80;;
80637;SDS011;69991;51.760;19.528;2023-06-04T10:29:04;3.30;;;0.90;;
80637;SDS011;69991;51.760;19.528;2023-06-04T10:31:37;3.30;;;1.00;;
80637;SDS011;69991;51.760;19.528;2023-06-04T10:34:06;2.60;;;0.90;;
80637;SDS011;69991;51.760;19.528;2023-06-04T10:36:44;2.70;;;1.00;;
80637;SDS011;69991;51.760;19.528;2023-06-04T10:39:24;2.90;;;1.10;;
80637;SDS011;69991;51.760;19.528;2023-06-04T10:44:27;4.30;;;0.90;;
80637;SDS011;69991;51.760;19.528;2023-06-04T10:46:56;2.30;;;0.90;;
80637;SDS011;69991;51.760;19.528;2023-06-04T10:49:29;3.40;;;1.10;;
80637;SDS011;69991;51.760;19.528;2023-06-04T10:52:09;2.60;;;0.90;;
80637;SDS011;69991;51.760;19.528;2023-06-04T10:54:39;3.40;;;1.00;;
80637;SDS011;69991;51.760;19.528;2023-06-04T10:57:15;3.50;;;1.20;;
80637;SDS011;69991;51.760;19.528;2023-06-04T10:59:58;3.80;;;1.00;;
80637;SDS011;69991;51.760;19.528;2023-06-04T11:04:58;2.90;;;1.00;;
80637;SDS011;69991;51.760;19.528;2023-06-04T11:07:40;3.40;;;1.00;;
80637;SDS011;69991;51.760;19.528;2023-06-04T11:10:13;2.50;;;1.20;;
80637;SDS011;69991;51.760;19.528;2023-06-04T11:12:44;3.10;;;0.90;;
80637;SDS011;69991;51.760;19.528;2023-06-04T11:15:16;2.50;;;0.90;;
80637;SDS011;69991;51.760;19.528;2023-06-04T11:17:48;2.30;;;1.00;;
80637;SDS011;69991;51.760;19.528;2023-06-04T11:20:24;2.60;;;0.90;;
80637;SDS011;69991;51.760;19.528;2023-06-04T11:22:57;4.20;;;1.10;;
80637;SDS011;69991;51.760;19.528;2023-06-04T11:25:27;3.00;;;1.00;;
80637;SDS011;69991;51.760;19.528;2023-06-04T11:27:58;3.30;;;1.10;;
80637;SDS011;69991;51.760;19.528;2023-06-04T11:30:30;2.80;;;1.10;;
80637;SDS011;69991;51.760;19.528;2023-06-04T11:33:03;3.20;;;0.90;;
80637;SDS011;69991;51.760;19.528;2023-06-04T11:35:40;2.50;;;0.90;;
80637;SDS011;69991;51.760;19.528;2023-06-04T11:38:10;4.10;;;0.90;;
80637;SDS011;69991;51.760;19.528;2023-06-04T11:40:39;3.70;;;1.10;;
80637;SDS011;69991;51.760;19.528;2023-06-04T11:43:10;2.50;;;0.80;;
80637;SDS011;69991;51.760;19.528;2023-06-04T11:45:39;2.80;;;0.90;;
80637;SDS011;69991;51.760;19.528;2023-06-04T11:48:10;2.50;;;1.00;;
80637;SDS011;69991;51.760;19.528;2023-06-04T11:50:39;3.80;;;1.40;;
80637;SDS011;69991;51.760;19.528;2023-06-04T11:53:09;3.00;;;1.10;;
80637;SDS011;69991;51.760;19.528;2023-06-04T11:55:39;3.30;;;0.90;;
80637;SDS011;69991;51.760;19.528;2023-06-04T11:58:08;1.90;;;0.70;;
80637;SDS011;69991;51.760;19.528;2023-06-04T12:00:38;2.70;;;0.90;;
80637;SDS011;69991;51.760;19.528;2023-06-04T12:03:07;2.40;;;0.90;;
80637;SDS011;69991;51.760;19.528;2023-06-04T12:05:36;3.50;;;1.20;;
80637;SDS011;69991;51.760;19.528;2023-06-04T12:08:06;2.80;;;1.00;;
80637;SDS011;69991;51.760;19.528;2023-06-04T12:10:39;2.80;;;0.90;;
80637;SDS011;69991;51.760;19.528;2023-06-04T12:13:09;4.00;;;1.30;;
80637;SDS011;69991;51.760;19.528;2023-06-04T12:15:38;3.80;;;1.20;;
80637;SDS011;69991;51.760;19.528;2023-06-04T12:18:08;2.80;;;1.00;;
80637;SDS011;69991;51.760;19.528;2023-06-04T12:20:39;3.30;;;1.10;;
80637;SDS011;69991;51.760;19.528;2023-06-04T12:23:18;3.10;;;1.00;;
80637;SDS011;69991;51.760;19.528;2023-06-04T12:25:52;2.70;;;0.90;;
80637;SDS011;69991;51.760;19.528;2023-06-04T12:28:22;2.70;;;1.00;;
80637;SDS011;69991;51.760;19.528;2023-06-04T12:30:51;3.80;;;1.10;;
80637;SDS011;69991;51.760;19.528;2023-06-04T12:33:20;3.30;;;0.80;;
80637;SDS011;69991;51.760;19.528;2023-06-04T12:35:49;3.00;;;1.10;;
80637;SDS011;69991;51.760;19.528;2023-06-04T12:38:18;2.80;;;1.00;;
80637;SDS011;69991;51.760;19.528;2023-06-04T12:40:47;3.70;;;1.00;;
80637;SDS011;69991;51.760;19.528;2023-06-04T12:43:16;3.40;;;1.10;;
80637;SDS011;69991;51.760;19.528;2023-06-04T12:45:45;3.30;;;1.00;;
80637;SDS011;69991;51.760;19.528;2023-06-04T12:48:14;2.80;;;0.90;;
80637;SDS011;69991;51.760;19.528;2023-06-04T12:50:43;2.50;;;0.80;;
80637;SDS011;69991;51.760;19.528;2023-06-04T12:53:13;3.60;;;0.90;;
80637;SDS011;69991;51.760;19.528;2023-06-04T12:55:42;3.10;;;1.00;;
80637;SDS011;69991;51.760;19.528;2023-06-04T12:58:11;3.30;;;1.10;;
80637;SDS011;69991;51.760;19.528;2023-06-04T13:00:40;3.70;;;0.90;;
80637;SDS011;69991;51.760;19.528;2023-06-04T13:03:10;3.90;;;1.00;;
80637;SDS011;69991;51.760;19.528;2023-06-04T13:05:39;2.30;;;0.90;;
80637;SDS011;69991;51.760;19.528;2023-06-04T13:08:10;3.70;;;1.00;;
80637;SDS011;69991;51.760;19.528;2023-06-04T13:10:39;3.00;;;1.00;;
80637;SDS011;69991;51.760;19.528;2023-06-04T13:13:09;4.00;;;1.30;;
80637;SDS011;69991;51.760;19.528;2023-06-04T13:15:38;3.00;;;0.80;;
80637;SDS011;69991;51.760;19.528;2023-06-04T13:18:07;3.20;;;1.10;;
80637;SDS011;69991;51.760;19.528;2023-06-04T13:20:37;4.00;;;1.10;;
80637;SDS011;69991;51.760;19.528;2023-06-04T13:23:07;4.00;;;1.00;;
80637;SDS011;69991;51.760;19.528;2023-06-04T13:25:36;2.80;;;0.90;;
80637;SDS011;69991;51.760;19.528;2023-06-04T13:28:05;3.00;;;1.00;;
80637;SDS011;69991;51.760;19.528;2023-06-04T13:30:35;2.40;;;0.80;;
80637;SDS011;69991;51.760;19.528;2023-06-04T13:33:05;3.40;;;1.20;;
80637;SDS011;69991;51.760;19.528;2023-06-04T13:35:35;2.50;;;1.00;;
80637;SDS011;69991;51.760;19.528;2023-06-04T13:38:04;2.40;;;1.00;;
80637;SDS011;69991;51.760;19.528;2023-06-04T13:40:37;3.20;;;1.00;;
80637;SDS011;69991;51.760;19.528;2023-06-04T13:43:06;2.40;;;0.90;;
80637;SDS011;69991;51.760;19.528;2023-06-04T13:45:37;2.60;;;0.90;;
80637;SDS011;69991;51.760;19.528;2023-06-04T13:48:08;2.70;;;0.90;;
80637;SDS011;69991;51.760;19.528;2023-06-04T13:50:38;3.70;;;1.10;;
80637;SDS011;69991;51.760;19.528;2023-06-04T13:53:08;2.60;;;0.90;;
80637;SDS011;69991;51.760;19.528;2023-06-04T13:55:37;2.60;;;1.10;;
80637;SDS011;69991;51.760;19.528;2023-06-04T13:58:06;4.20;;;1.10;;
80637;SDS011;69991;51.760;19.528;2023-06-04T14:00:35;3.30;;;0.90;;
80637;SDS011;69991;51.760;19.528;2023-06-04T14:03:05;3.20;;;1.00;;
80637;SDS011;69991;51.760;19.528;2023-06-04T14:05:34;3.20;;;1.30;;
80637;SDS011;69991;51.760;19.528;2023-06-04T14:08:03;2.20;;;0.90;;
80637;SDS011;69991;51.760;19.528;2023-06-04T14:10:32;3.70;;;1.60;;
80637;SDS011;69991;51.760;19.528;2023-06-04T14:13:01;2.80;;;1.20;;
80637;SDS011;69991;51.760;19.528;2023-06-04T14:15:31;2.70;;;0.90;;
80637;SDS011;69991;51.760;19.528;2023-06-04T14:18:00;2.70;;;1.00;;
80637;SDS011;69991;51.760;19.528;2023-06-04T14:20:30;2.90;;;1.20;;
80637;SDS011;69991;51.760;19.528;2023-06-04T14:22:59;3.00;;;1.60;;
80637;SDS011;69991;51.760;19.528;2023-06-04T14:25:28;4.10;;;1.10;;
80637;SDS011;69991;51.760;19.528;2023-06-04T14:27:58;2.10;;;0.90;;
80637;SDS011;69991;51.760;19.528;2023-06-04T14:30:27;3.20;;;1.00;;
80637;SDS011;69991;51.760;19.528;2023-06-04T14:32:56;3.30;;;1.40;;
80637;SDS011;69991;51.760;19.528;2023-06-04T14:35:25;3.10;;;1.00;;
80637;SDS011;69991;51.760;19.528;2023-06-04T14:37:54;3.20;;;1.00;;
80637;SDS011;69991;51.760;19.528;2023-06-04T14:40:24;3.30;;;1.00;;
80637;SDS011;69991;51.760;19.528;2023-06-04T14:42:53;2.20;;;0.90;;
80637;SDS011;69991;51.760;19.528;2023-06-04T14:45:22;3.00;;;1.20;;
80637;SDS011;69991;51.760;19.528;2023-06-04T14:47:52;3.00;;;0.90;;
80637;SDS011;69991;51.760;19.528;2023-06-04T14:50:40;2.70;;;1.00;;
80637;SDS011;69991;51.760;19.528;2023-06-04T14:53:11;4.30;;;1.00;;
80637;SDS011;69991;51.760;19.528;2023-06-04T14:55:41;3.80;;;1.10;;
80637;SDS011;69991;51.760;19.528;2023-06-04T14:58:10;2.90;;;1.10;;
80637;SDS011;69991;51.760;19.528;2023-06-04T15:00:41;2.60;;;0.90;;
80637;SDS011;69991;51.760;19.528;2023-06-04T15:03:10;3.50;;;1.40;;
80637;SDS011;69991;51.760;19.528;2023-06-04T15:05:40;3.60;;;0.90;;